Ada, WV

4:53 PM EDT on July 30, 2015 (GMT -0400)
South Bluefield | | Change Station
CLOSE
Current Station
Personal Weather Station
Location: Bluefield, WV
Elevation: 2700 ft
Nearby Weather Stations

Elev 2700 ft 37.26 °N, 81.20 °W | Updated 9 seconds ago

Scattered Clouds
Scattered Clouds
81.4 °F
Feels Like 84 °F
N
0.0
Wind Variable Wind from North
Gusts 4.0 mph

Today
High -- | Low -- °F
--% Chance of Precip.
Yesterday
High -- | Low -- °F
Precip. -- in
6:27 AM 8:34 PM
Full, 100% visible
Pressure 29.96 in
Visibility 10.0 miles
Clouds Scattered Clouds 2600 ft
Scattered Clouds 3900 ft
Heat Index 84 °F
Dew Point 68 °F
Humidity 63%
Rainfall 0.00 in
Snow Depth Not available.
UV 7 out of 12
Pollen 5.20 out of 12
Air Quality Not available.
Flu Activity Not available.
METAR KBLF 301952Z AUTO 30008KT 10SM SCT026 SCT039 28/20 A3009 RMK AO2 SLP144 T02830200

More Conditions Fewer Conditions

Pressure 29.96 in
Visibility 10.0 miles
Clouds Scattered Clouds 2600 ft
Scattered Clouds 3900 ft
Heat Index 84 °F
Dew Point 68 °F
Humidity 63%
Rainfall 0.00 in
Snow Depth Not available.
UV 7 out of 12
Pollen 5.20 out of 12
Air Quality Not available.
Flu Activity Not available.
METAR KBLF 301952Z AUTO 30008KT 10SM SCT026 SCT039 28/20 A3009 RMK AO2 SLP144 T02830200

More Conditions Fewer Conditions

10-Day Weather Forecast

×

Almanac

Astronomy

Jul. 30, 2015 Rise Set
Actual Time
Civil Twilight
Nautical Twilight
Astronomical Twilight
Moon
Length of Visible Light
Length of Day
Tomorrow will be .
, % of the Moon is Illuminated

Today's Extremes

State Highs State Lows

Community

WunderPhotos

Upload Photos

1,842,498 photos uploaded!

WunderBlogs® & News

Nearby

Air Quality

  Air Quality AQ Index Pollutant
Not available.

Snow Depth

Station Depth Elevation

Earthquake Activity

City Distance Mag. Time & Date
Minimum magnitude displayed is 2.5.

Coastal Water Temperatures

Place Temperature

Stations

Nearby Weather Stations

Station Location Temp. Windchill Dew Point Humidity Wind Precip. Elev Updated Type